Time;durP1;ratioP1;P1;durP2;ratioP2;P2;SDS_P1;SDS_P2;PMS_P1;PMS_P2;Temp;Humidity;BMP_temperature;BMP_pressure;BME280_temperature;BME280_humidity;BME280_pressure;Samples;Min_cycle;Max_cycle;Signal;HPM_P1;HPM_P2
2022/09/09 00:01:30;;;;;;;3.38;0.60;;;;;;;18.70;62.26;96799.16;4981158;28;20212;-76
2022/09/09 00:04:11;;;;;;;2.95;0.80;;;;;;;18.76;62.29;96789.22;4963281;28;20192;-76
2022/09/09 00:07:03;;;;;;;1.45;0.38;;;;;;;18.72;62.25;96796.97;4960547;28;20276;-76
2022/09/09 00:09:31;;;;;;;3.10;0.63;;;;;;;18.89;61.75;96795.50;4982266;28;20291;-77
2022/09/09 00:12:21;;;;;;;1.65;0.50;;;;;;;18.79;62.23;96780.72;4967168;28;20670;-77
2022/09/09 00:14:59;;;;;;;4.55;1.25;;;;;;;18.79;61.59;96783.34;4935386;28;20281;-77
2022/09/09 00:17:48;;;;;;;1.98;0.60;;;;;;;18.82;61.87;96788.03;4962398;28;20238;-77
2022/09/09 00:20:45;;;;;;;1.58;0.57;;;;;;;18.51;62.38;96785.44;4964227;28;20303;-77
2022/09/09 00:23:33;;;;;;;2.10;0.70;;;;;;;18.49;62.44;96784.94;4932099;28;20294;-77
2022/09/09 00:26:08;;;;;;;1.50;0.80;;;;;;;18.52;62.50;96790.41;4966866;28;20248;-76
2022/09/09 00:28:52;;;;;;;4.10;0.68;;;;;;;18.57;62.08;96800.03;4962662;28;20278;-77
2022/09/09 00:31:26;;;;;;;1.60;0.55;;;;;;;18.58;62.27;96796.31;4948369;28;20583;-77
2022/09/09 00:33:52;;;;;;;2.10;0.43;;;;;;;18.68;61.80;96787.38;4967916;28;20285;-76
2022/09/09 00:36:25;;;;;;;1.92;0.60;;;;;;;18.61;61.91;96774.63;4967340;28;20322;-77
2022/09/09 00:39:00;;;;;;;1.38;0.40;;;;;;;18.61;61.94;96790.44;4951373;28;20256;-76
2022/09/09 00:41:34;;;;;;;2.40;0.50;;;;;;;18.65;61.91;96782.69;4950934;28;20162;-76
2022/09/09 00:44:13;;;;;;;2.15;0.73;;;;;;;18.48;62.48;96789.47;4979211;28;20203;-77
2022/09/09 00:47:16;;;;;;;3.42;0.80;;;;;;;18.45;62.84;96790.06;4988210;28;20367;-76
2022/09/09 00:49:54;;;;;;;2.17;0.75;;;;;;;18.57;62.61;96781.56;4970034;28;20207;-77
2022/09/09 00:52:31;;;;;;;2.28;0.55;;;;;;;18.56;62.58;96779.25;4970571;28;20208;-76
2022/09/09 00:55:12;;;;;;;2.92;0.60;;;;;;;18.46;62.65;96775.81;4968838;28;20210;-76
2022/09/09 00:57:37;;;;;;;1.50;0.80;;;;;;;18.60;62.68;96785.47;4969130;28;20712;-77
2022/09/09 01:00:15;;;;;;;5.07;0.70;;;;;;;18.42;62.84;96788.06;4966693;28;20355;-77
2022/09/09 01:03:08;;;;;;;2.53;0.55;;;;;;;18.45;62.67;96784.03;4950980;28;20212;-77
2022/09/09 01:06:11;;;;;;;2.47;0.47;;;;;;;18.60;62.65;96780.19;4968620;28;20615;-76
2022/09/09 01:08:50;;;;;;;2.70;0.70;;;;;;;18.52;62.51;96774.59;4968671;28;20170;-76
2022/09/09 01:11:25;;;;;;;2.72;0.80;;;;;;;18.64;62.32;96767.94;4968491;28;20559;-77
2022/09/09 01:13:58;;;;;;;1.33;0.50;;;;;;;18.60;62.38;96769.66;4950873;28;20281;-76
2022/09/09 01:16:24;;;;;;;2.97;0.80;;;;;;;18.76;62.10;96772.63;4926633;28;20217;-77
2022/09/09 01:18:53;;;;;;;5.53;1.35;;;;;;;18.74;61.77;96772.16;4966970;28;20181;-76
2022/09/09 01:21:40;;;;;;;1.13;0.65;;;;;;;18.69;61.92;96779.13;4949865;28;20200;-77
2022/09/09 01:24:27;;;;;;;2.53;0.50;;;;;;;18.43;62.63;96771.13;4973720;28;20255;-76
2022/09/09 01:26:57;;;;;;;3.15;1.00;;;;;;;18.62;62.63;96772.75;4965827;28;20338;-76
2022/09/09 01:29:23;;;;;;;3.53;0.73;;;;;;;18.63;62.49;96769.81;4950228;28;20253;-76
2022/09/09 01:31:54;;;;;;;1.92;0.50;;;;;;;18.65;62.17;96772.91;4949941;28;20165;-77
2022/09/09 01:34:21;;;;;;;1.50;0.65;;;;;;;18.61;62.18;96774.63;4950110;28;20146;-77
2022/09/09 01:36:57;;;;;;;4.10;0.93;;;;;;;18.55;62.17;96778.47;4963699;28;20294;-77
2022/09/09 01:39:23;;;;;;;2.00;0.60;;;;;;;18.66;61.83;96778.97;4966571;28;20694;-76
2022/09/09 01:41:48;;;;;;;2.33;0.60;;;;;;;18.70;61.97;96778.06;4949825;28;20165;-77
2022/09/09 01:44:14;;;;;;;4.07;0.75;;;;;;;18.63;62.27;96779.59;4968151;28;20727;-76
2022/09/09 01:46:39;;;;;;;2.65;0.50;;;;;;;18.63;62.50;96783.00;4963730;28;20188;-76
2022/09/09 01:49:06;;;;;;;2.60;0.50;;;;;;;18.53;62.49;96789.31;4950291;28;20604;-76
2022/09/09 01:55:13;;;;;;;4.20;0.60;;;;;;;18.57;62.70;96801.91;5059528;28;20051;-76
2022/09/09 01:58:16;;;;;;;2.00;0.55;;;;;;;18.22;63.12;96799.91;5002208;28;20638;-77
2022/09/09 02:00:48;;;;;;;2.75;0.98;;;;;;;18.30;62.90;96793.09;4870556;28;20235;-76
2022/09/09 02:03:28;;;;;;;5.13;0.80;;;;;;;18.28;63.10;96790.78;4939562;28;20335;-77
2022/09/09 02:06:13;;;;;;;4.30;1.13;;;;;;;18.36;63.06;96794.53;4954239;28;20339;-77
2022/09/09 02:08:59;;;;;;;4.05;0.80;;;;;;;18.17;63.24;96800.03;5034634;28;20516;-75
2022/09/09 02:11:26;;;;;;;1.30;0.45;;;;;;;18.32;63.07;96793.59;5024475;28;20037;-77
2022/09/09 02:13:57;;;;;;;0.60;0.60;;;;;;;18.19;63.18;96792.59;4950166;28;20191;-77
2022/09/09 02:16:40;;;;;;;1.73;0.43;;;;;;;18.10;63.66;96783.88;4951976;28;20261;-77
2022/09/09 02:19:17;;;;;;;2.22;0.40;;;;;;;18.12;63.49;96790.38;4969132;28;20197;-77
2022/09/09 02:21:44;;;;;;;2.58;0.63;;;;;;;18.11;63.64;96774.88;4968776;28;20289;-76
2022/09/09 02:24:11;;;;;;;1.75;0.60;;;;;;;18.11;63.51;96775.69;4958903;28;20207;-77
2022/09/09 02:26:41;;;;;;;1.05;0.50;;;;;;;18.02;63.44;96774.84;4974166;28;20192;-76
2022/09/09 02:29:20;;;;;;;3.85;0.50;;;;;;;17.99;63.59;96775.44;4949066;28;20173;-76
2022/09/09 02:31:47;;;;;;;2.38;0.68;;;;;;;18.08;63.32;96781.53;4948832;28;20646;-76
2022/09/09 02:34:13;;;;;;;3.72;0.60;;;;;;;18.09;63.64;96783.09;4949051;28;20261;-77
2022/09/09 02:36:41;;;;;;;1.35;0.50;;;;;;;18.01;63.44;96775.13;4948425;28;20216;-77
2022/09/09 02:39:08;;;;;;;2.35;0.57;;;;;;;18.11;63.42;96775.69;4948792;28;20211;-76
2022/09/09 02:41:35;;;;;;;1.75;0.50;;;;;;;18.21;63.16;96779.13;4954183;28;20277;-76
2022/09/09 02:44:01;;;;;;;1.88;0.50;;;;;;;18.12;63.41;96779.84;4966893;28;20251;-76
2022/09/09 02:46:36;;;;;;;2.42;0.43;;;;;;;17.96;63.42;96770.78;4967470;28;20718;-76
2022/09/09 02:49:19;;;;;;;3.25;0.90;;;;;;;17.78;63.92;96760.09;4935933;28;20328;-77
2022/09/09 02:51:59;;;;;;;3.78;0.80;;;;;;;17.85;63.98;96764.94;4967451;28;20199;-76
2022/09/09 02:54:31;;;;;;;1.40;0.50;;;;;;;17.93;63.69;96768.75;4967210;28;20636;-76
2022/09/09 02:57:06;;;;;;;1.23;0.40;;;;;;;17.90;63.69;96764.09;4917086;28;20229;-77
2022/09/09 02:59:31;;;;;;;2.15;0.60;;;;;;;17.95;63.34;96767.34;4931913;28;20260;-77
2022/09/09 03:01:57;;;;;;;2.35;0.40;;;;;;;17.94;63.63;96765.03;4932564;28;20707;-77
2022/09/09 03:04:24;;;;;;;4.18;0.57;;;;;;;17.91;63.85;96773.56;4947874;28;20289;-77
2022/09/09 03:06:49;;;;;;;2.28;0.60;;;;;;;17.89;64.00;96771.22;4946418;28;20192;-76
2022/09/09 03:09:14;;;;;;;3.13;0.60;;;;;;;17.89;64.18;96768.59;4948633;28;20196;-76
2022/09/09 03:11:40;;;;;;;2.95;0.93;;;;;;;17.94;63.58;96772.94;4931682;28;20255;-76
2022/09/09 03:14:06;;;;;;;2.53;0.50;;;;;;;17.94;63.84;96770.28;4915127;28;20758;-76
2022/09/09 03:16:33;;;;;;;1.52;0.65;;;;;;;17.93;63.60;96769.53;4968364;28;20582;-76
2022/09/09 03:18:58;;;;;;;0.70;0.40;;;;;;;17.91;63.74;96765.66;4952056;28;20188;-77
2022/09/09 03:21:24;;;;;;;2.38;0.47;;;;;;;17.91;63.29;96776.19;4968140;28;20195;-76
2022/09/09 03:23:49;;;;;;;3.15;0.47;;;;;;;17.76;63.96;96769.41;4977019;28;20630;-76
2022/09/09 03:26:15;;;;;;;2.70;1.25;;;;;;;17.77;63.41;96766.47;4945044;28;20208;-77
2022/09/09 03:28:41;;;;;;;3.00;0.50;;;;;;;17.70;64.05;96779.28;4916495;28;20195;-77
2022/09/09 03:31:10;;;;;;;4.05;0.65;;;;;;;17.77;63.76;96777.00;4942251;28;20245;-77
2022/09/09 03:33:38;;;;;;;2.95;0.63;;;;;;;17.79;63.83;96774.84;4951703;28;20161;-76
2022/09/09 03:36:04;;;;;;;1.25;0.40;;;;;;;17.71;64.02;96769.53;4951649;28;20647;-77
2022/09/09 03:38:31;;;;;;;2.40;0.50;;;;;;;17.75;64.00;96779.16;4948086;28;20184;-77
2022/09/09 03:40:59;;;;;;;1.90;0.85;;;;;;;17.78;63.89;96781.16;4948176;28;20189;-76
2022/09/09 03:43:25;;;;;;;1.05;0.60;;;;;;;17.74;64.34;96774.97;4948087;28;20290;-77
2022/09/09 03:45:51;;;;;;;2.55;0.60;;;;;;;17.76;64.46;96770.16;4945733;28;20604;-76
2022/09/09 03:48:17;;;;;;;2.38;0.43;;;;;;;17.78;64.40;96773.28;4985855;28;20649;-77
2022/09/09 03:50:51;;;;;;;3.38;0.80;;;;;;;17.74;64.40;96772.31;4946205;28;20283;-77
2022/09/09 03:53:19;;;;;;;1.80;0.82;;;;;;;17.89;63.86;96778.31;4947856;28;20173;-76
2022/09/09 03:55:49;;;;;;;1.42;0.43;;;;;;;17.90;63.99;96772.00;4947717;28;20603;-77
2022/09/09 03:58:16;;;;;;;1.10;0.30;;;;;;;17.82;64.17;96777.94;4964442;28;20188;-76
2022/09/09 04:00:42;;;;;;;1.92;0.60;;;;;;;17.85;64.32;96782.63;4965620;28;20199;-77
2022/09/09 04:03:11;;;;;;;2.67;0.50;;;;;;;17.66;64.46;96780.94;4915831;28;20280;-76
2022/09/09 04:05:39;;;;;;;1.23;0.60;;;;;;;17.61;64.75;96778.44;4962500;28;20211;-77
2022/09/09 04:08:06;;;;;;;4.00;0.65;;;;;;;17.76;64.38;96772.81;4968626;28;20649;-76
2022/09/09 04:10:32;;;;;;;4.32;0.60;;;;;;;17.77;64.42;96771.72;4951146;28;20747;-76
2022/09/09 04:12:58;;;;;;;2.28;0.60;;;;;;;17.74;64.63;96776.81;4968195;28;20287;-77
2022/09/09 04:15:23;;;;;;;3.25;0.50;;;;;;;17.75;65.03;96778.38;4956750;28;20208;-76
2022/09/09 04:17:49;;;;;;;1.45;0.50;;;;;;;17.76;65.03;96785.19;4984381;28;20215;-76
2022/09/09 04:20:15;;;;;;;2.40;0.60;;;;;;;17.84;64.65;96786.31;4935518;28;20243;-77
2022/09/09 04:22:40;;;;;;;2.22;0.85;;;;;;;17.75;64.92;96789.69;4959009;28;20185;-76
2022/09/09 04:25:06;;;;;;;2.33;0.70;;;;;;;17.70;64.89;96791.66;4968868;28;20285;-77
2022/09/09 04:27:31;;;;;;;2.15;0.73;;;;;;;17.81;64.91;96787.72;4934712;28;20208;-77
2022/09/09 04:29:57;;;;;;;2.08;0.40;;;;;;;17.81;65.08;96790.34;4934671;28;20196;-76
2022/09/09 04:32:23;;;;;;;2.75;0.60;;;;;;;17.86;64.97;96792.88;4951385;28;20711;-77
2022/09/09 04:34:48;;;;;;;2.45;0.95;;;;;;;17.93;64.89;96801.13;4969165;28;20369;-76
2022/09/09 04:37:14;;;;;;;3.17;0.80;;;;;;;17.98;64.77;96792.34;4968902;28;20579;-77
2022/09/09 04:39:39;;;;;;;3.58;0.70;;;;;;;18.00;64.70;96792.03;4918777;28;20268;-77
2022/09/09 04:42:05;;;;;;;1.63;0.40;;;;;;;18.09;64.31;96793.63;4965491;28;20179;-76
2022/09/09 04:44:30;;;;;;;0.63;0.60;;;;;;;18.17;64.43;96796.63;4988348;28;20191;-77
2022/09/09 04:46:55;;;;;;;1.75;0.60;;;;;;;18.11;64.15;96802.03;4950675;28;20273;-77
2022/09/09 04:49:21;;;;;;;1.13;0.38;;;;;;;18.13;64.31;96794.59;4950322;28;20308;-76
2022/09/09 04:51:49;;;;;;;2.90;0.60;;;;;;;18.13;64.11;96789.31;4950812;28;20650;-76
2022/09/09 04:54:14;;;;;;;3.58;0.60;;;;;;;18.25;64.24;96801.13;4950440;28;20270;-77
2022/09/09 04:56:41;;;;;;;2.58;0.70;;;;;;;18.32;64.01;96801.50;4963064;28;20384;-76
2022/09/09 04:59:08;;;;;;;3.10;0.50;;;;;;;18.29;64.22;96808.13;4949471;28;20163;-76
2022/09/09 05:01:34;;;;;;;5.00;0.90;;;;;;;18.32;64.45;96804.91;4933159;28;20197;-77
2022/09/09 05:03:59;;;;;;;4.40;0.82;;;;;;;18.28;64.26;96808.44;4933286;28;20188;-77
2022/09/09 05:06:24;;;;;;;2.00;0.38;;;;;;;18.37;63.97;96808.47;4968182;28;20578;-77
2022/09/09 05:08:50;;;;;;;3.25;0.63;;;;;;;18.44;63.78;96812.25;4952607;28;20269;-76
2022/09/09 05:11:24;;;;;;;1.80;0.47;;;;;;;18.29;64.04;96807.38;4964912;28;20184;-77
2022/09/09 05:13:51;;;;;;;2.80;0.47;;;;;;;18.43;63.94;96804.63;4949879;28;20169;-76
2022/09/09 05:16:19;;;;;;;2.72;0.85;;;;;;;18.48;63.74;96815.81;4960641;28;20265;-76
2022/09/09 05:18:45;;;;;;;2.70;0.43;;;;;;;18.42;63.85;96810.97;4967393;28;20669;-77
2022/09/09 05:21:12;;;;;;;4.22;0.68;;;;;;;18.41;63.95;96809.44;4967712;28;20194;-77
2022/09/09 05:23:37;;;;;;;2.15;0.50;;;;;;;18.27;64.37;96809.53;4967308;28;20079;-76
2022/09/09 05:26:04;;;;;;;2.28;0.60;;;;;;;18.33;64.17;96817.00;4962835;28;20191;-76
2022/09/09 05:28:30;;;;;;;4.03;0.60;;;;;;;18.40;64.14;96819.19;4967713;28;20313;-76
2022/09/09 05:31:00;;;;;;;2.45;0.60;;;;;;;18.34;64.47;96813.28;4982298;28;20295;-77
2022/09/09 05:33:26;;;;;;;3.63;0.60;;;;;;;18.32;64.40;96815.44;4947356;28;20591;-76
2022/09/09 05:36:10;;;;;;;4.22;1.15;;;;;;;18.34;64.36;96812.50;4921799;28;20298;-76
2022/09/09 05:38:36;;;;;;;3.67;0.63;;;;;;;18.61;63.90;96814.19;4947767;28;20669;-76
2022/09/09 05:41:02;;;;;;;3.17;0.55;;;;;;;18.64;63.96;96812.78;4931294;28;20241;-77
2022/09/09 05:43:29;;;;;;;2.47;0.50;;;;;;;18.64;63.75;96812.78;4963676;28;20591;-76
2022/09/09 05:46:07;;;;;;;2.85;0.60;;;;;;;18.69;63.90;96825.81;4963043;28;20256;-77
2022/09/09 05:48:38;;;;;;;2.88;0.85;;;;;;;18.48;64.04;96823.72;4966967;28;20306;-77
2022/09/09 05:51:04;;;;;;;2.40;0.60;;;;;;;18.71;63.41;96836.84;4965717;28;20330;-78
2022/09/09 05:53:32;;;;;;;2.65;1.08;;;;;;;18.64;63.35;96837.28;4966873;28;20191;-76
2022/09/09 05:56:12;;;;;;;3.05;0.80;;;;;;;18.59;63.57;96836.63;4961985;28;20208;-77
2022/09/09 05:58:38;;;;;;;1.63;0.50;;;;;;;18.85;63.45;96842.81;4945491;28;20204;-77
2022/09/09 06:01:06;;;;;;;2.65;0.70;;;;;;;18.83;63.70;96850.28;4946487;28;20358;-76
2022/09/09 06:03:35;;;;;;;4.15;1.20;;;;;;;18.94;63.32;96842.09;4947179;28;20710;-76
2022/09/09 06:06:05;;;;;;;3.13;0.70;;;;;;;19.08;63.41;96848.00;4964434;28;20216;-77
2022/09/09 06:08:31;;;;;;;5.63;0.60;;;;;;;19.11;63.42;96841.31;4947391;28;20678;-76
2022/09/09 06:11:02;;;;;;;4.10;0.80;;;;;;;18.85;64.42;96849.94;4930781;28;20292;-76
2022/09/09 06:13:28;;;;;;;4.40;0.70;;;;;;;18.99;65.15;96845.34;4947412;28;20177;-76
2022/09/09 06:15:53;;;;;;;1.88;0.60;;;;;;;19.19;64.70;96844.00;4948906;28;20236;-76
2022/09/09 06:18:19;;;;;;;1.95;0.70;;;;;;;19.20;64.44;96852.69;4972779;28;20158;-76
2022/09/09 06:21:04;;;;;;;3.28;1.00;;;;;;;19.04;64.87;96841.78;4944919;28;20250;-77
2022/09/09 06:23:30;;;;;;;3.47;0.80;;;;;;;19.16;64.61;96839.34;4960855;28;20247;-76
2022/09/09 06:26:01;;;;;;;2.78;0.82;;;;;;;19.24;64.55;96845.69;4960552;28;20285;-76
2022/09/09 06:28:27;;;;;;;2.95;0.93;;;;;;;19.51;64.55;96839.34;4960733;28;20228;-77
2022/09/09 06:31:03;;;;;;;2.78;0.73;;;;;;;19.62;64.33;96848.53;4944403;28;20321;-75
2022/09/09 06:33:40;;;;;;;3.63;1.10;;;;;;;19.50;63.82;96837.81;4944655;28;20286;-77
2022/09/09 06:36:07;;;;;;;4.40;1.00;;;;;;;19.56;63.79;96847.13;4930913;28;20269;-76
2022/09/09 06:38:33;;;;;;;3.28;0.77;;;;;;;19.55;63.94;96842.16;4964454;28;20238;-76
2022/09/09 06:40:59;;;;;;;3.67;1.00;;;;;;;19.28;64.48;96844.78;4981083;28;20191;-77
2022/09/09 06:43:25;;;;;;;4.00;0.77;;;;;;;19.31;64.14;96837.31;4944822;28;20715;-76
2022/09/09 06:53:16;;;;;;;1.63;0.90;;;;;;;19.33;65.29;96843.06;4985791;28;20566;-76
2022/09/09 06:55:44;;;;;;;3.83;0.80;;;;;;;19.55;64.91;96840.31;4970669;28;20254;-77
2022/09/09 06:58:09;;;;;;;3.85;0.85;;;;;;;19.59;64.76;96835.94;4945099;28;20277;-76
2022/09/09 07:00:37;;;;;;;6.05;0.90;;;;;;;19.64;64.42;96843.72;4947291;28;20246;-77
2022/09/09 07:03:03;;;;;;;5.05;0.70;;;;;;;19.68;64.01;96849.16;4954555;28;20268;-76
2022/09/09 07:05:28;;;;;;;3.13;1.30;;;;;;;19.77;64.26;96841.25;4947999;28;20260;-77
2022/09/09 07:07:53;;;;;;;2.08;1.00;;;;;;;19.85;64.15;96842.34;4948049;28;20570;-76
2022/09/09 07:10:19;;;;;;;2.22;0.80;;;;;;;19.81;64.18;96842.19;4947584;28;20258;-76
2022/09/09 07:12:44;;;;;;;3.50;1.08;;;;;;;19.85;64.14;96837.81;4932049;28;20192;-76
2022/09/09 07:15:10;;;;;;;3.95;0.85;;;;;;;19.97;63.90;96843.25;4932199;28;20286;-77
2022/09/09 07:17:36;;;;;;;6.05;0.95;;;;;;;19.91;64.66;96836.59;4949342;28;20296;-77
2022/09/09 07:20:04;;;;;;;3.35;1.10;;;;;;;19.75;64.04;96841.56;4965832;28;20300;-77
2022/09/09 07:22:30;;;;;;;3.38;0.70;;;;;;;19.91;64.08;96847.16;4916897;28;20252;-77
2022/09/09 07:24:55;;;;;;;5.75;0.95;;;;;;;19.75;64.79;96851.34;4935136;28;20282;-76
2022/09/09 07:27:21;;;;;;;2.47;0.70;;;;;;;19.88;64.47;96852.25;4966755;28;20666;-76
2022/09/09 07:29:46;;;;;;;3.58;0.80;;;;;;;19.93;64.16;96849.47;4985189;28;20187;-76
2022/09/09 07:32:12;;;;;;;2.20;0.77;;;;;;;19.86;64.35;96855.25;4985409;28;20283;-76
2022/09/09 07:34:37;;;;;;;5.35;1.67;;;;;;;19.75;64.27;96854.75;4967195;28;20309;-76
2022/09/09 07:37:02;;;;;;;2.63;0.60;;;;;;;19.79;64.15;96847.00;4967343;28;20633;-76
2022/09/09 07:39:28;;;;;;;2.70;0.80;;;;;;;19.81;63.35;96858.03;4966742;28;20702;-77
2022/09/09 07:41:54;;;;;;;3.97;1.90;;;;;;;19.69;64.02;96857.84;4950788;28;20202;-77
2022/09/09 07:44:22;;;;;;;2.50;0.90;;;;;;;19.93;63.37;96860.03;4985026;28;20269;-76
2022/09/09 07:46:47;;;;;;;3.10;0.85;;;;;;;20.05;63.23;96859.41;4967314;28;20161;-77
2022/09/09 07:49:13;;;;;;;3.33;0.70;;;;;;;19.97;63.21;96859.09;4966343;28;20241;-77
2022/09/09 07:51:41;;;;;;;3.90;1.10;;;;;;;19.93;63.13;96855.53;4983554;28;20275;-77
2022/09/09 07:54:09;;;;;;;6.30;1.13;;;;;;;20.00;63.27;96855.06;4984617;28;20161;-77
2022/09/09 07:56:35;;;;;;;1.85;0.80;;;;;;;20.08;62.96;96856.91;4966943;28;20369;-77
2022/09/09 07:59:01;;;;;;;4.05;0.57;;;;;;;20.14;62.81;96860.19;4934028;28;20641;-77
2022/09/09 08:01:32;;;;;;;2.75;0.98;;;;;;;19.99;63.51;96861.44;4984995;28;20244;-76
2022/09/09 08:04:02;;;;;;;4.18;0.80;;;;;;;19.97;63.39;96861.75;4962687;28;20641;-77
2022/09/09 08:06:33;;;;;;;3.97;1.05;;;;;;;20.02;63.88;96869.50;4931019;28;20106;-77
2022/09/09 08:08:59;;;;;;;3.65;0.80;;;;;;;19.94;63.39;96865.00;4947186;28;20674;-77
2022/09/09 08:11:27;;;;;;;4.20;1.50;;;;;;;19.98;63.90;96876.53;4930849;28;20161;-77
2022/09/09 08:13:53;;;;;;;5.55;0.90;;;;;;;20.12;63.43;96878.22;4930889;28;20205;-76
2022/09/09 08:16:23;;;;;;;3.03;0.93;;;;;;;20.18;63.12;96876.94;4930938;28;20157;-76
2022/09/09 08:18:50;;;;;;;6.53;1.70;;;;;;;20.06;62.77;96882.88;4953771;28;20188;-77
2022/09/09 08:21:23;;;;;;;2.85;1.15;;;;;;;20.28;61.98;96887.19;4966712;28;20199;-76
2022/09/09 08:23:51;;;;;;;4.10;1.27;;;;;;;20.43;60.82;96895.72;4963615;28;20703;-77
2022/09/09 08:26:31;;;;;;;2.35;0.90;;;;;;;20.44;61.02;96884.06;4947140;28;20258;-77
2022/09/09 08:28:58;;;;;;;3.25;1.00;;;;;;;20.68;61.32;96896.75;4963235;28;20186;-77
2022/09/09 08:31:31;;;;;;;4.35;1.00;;;;;;;20.74;61.88;96888.34;4930730;28;20646;-77
2022/09/09 08:33:59;;;;;;;6.00;1.05;;;;;;;20.87;60.40;96891.09;4963200;28;20720;-77
2022/09/09 08:36:26;;;;;;;6.78;1.30;;;;;;;20.76;60.78;96894.09;4964978;28;20174;-76
2022/09/09 08:38:56;;;;;;;2.95;0.95;;;;;;;20.75;60.25;96887.25;4963405;28;20196;-77
2022/09/09 08:41:42;;;;;;;5.05;0.90;;;;;;;20.86;59.70;96892.97;4946802;28;20655;-77
2022/09/09 08:44:30;;;;;;;4.72;1.02;;;;;;;21.06;58.86;96891.47;4932030;28;20204;-77
2022/09/09 08:47:06;;;;;;;5.03;1.35;;;;;;;21.17;59.62;96886.59;4984477;28;20192;-76
2022/09/09 08:49:50;;;;;;;4.35;1.50;;;;;;;21.19;58.52;96887.03;4966618;28;20181;-77
2022/09/09 08:52:26;;;;;;;4.07;1.02;;;;;;;21.49;58.31;96893.13;4984929;28;20263;-77
2022/09/09 08:54:52;;;;;;;5.22;0.95;;;;;;;21.35;57.31;96891.78;4938200;28;20613;-76
2022/09/09 08:57:26;;;;;;;3.28;1.00;;;;;;;21.11;56.81;96888.66;4970169;28;20156;-77
2022/09/09 08:59:54;;;;;;;4.28;1.30;;;;;;;21.49;57.37;96895.00;4970804;28;20648;-77
2022/09/09 09:02:44;;;;;;;4.10;0.80;;;;;;;21.48;57.26;96901.38;4938195;28;20195;-77
2022/09/09 09:05:13;;;;;;;3.83;0.88;;;;;;;21.64;55.96;96901.56;4959869;28;20645;-77
2022/09/09 09:07:50;;;;;;;2.67;1.05;;;;;;;21.51;57.00;96896.22;4970408;28;20195;-77
2022/09/09 09:10:30;;;;;;;3.38;1.25;;;;;;;21.62;56.26;96893.94;4970108;28;20364;-76
2022/09/09 09:12:56;;;;;;;3.95;0.88;;;;;;;21.62;56.09;96898.47;4970670;28;20154;-77
2022/09/09 09:15:24;;;;;;;3.17;0.80;;;;;;;21.27;56.39;96893.38;4969334;28;20168;-75
2022/09/09 09:17:50;;;;;;;5.55;1.35;;;;;;;21.51;57.23;96888.25;4970449;28;20184;-77
2022/09/09 09:20:16;;;;;;;3.83;0.80;;;;;;;21.60;55.18;96890.09;4969897;28;20505;-77
2022/09/09 09:22:52;;;;;;;3.80;0.68;;;;;;;21.41;55.79;96890.50;4954239;28;20187;-76
2022/09/09 09:25:19;;;;;;;3.78;1.13;;;;;;;21.47;56.83;96892.66;4954495;28;20198;-76
2022/09/09 09:27:47;;;;;;;4.40;0.90;;;;;;;21.67;56.12;96888.47;4969779;28;20376;-77
2022/09/09 09:30:13;;;;;;;3.05;0.73;;;;;;;21.95;55.73;96887.16;4988032;28;20573;-77
2022/09/09 09:32:39;;;;;;;3.10;1.10;;;;;;;22.24;53.92;96884.41;4987227;28;20207;-78
2022/09/09 09:35:09;;;;;;;2.63;0.70;;;;;;;22.24;53.68;96883.59;4937520;28;20247;-77
2022/09/09 09:37:35;;;;;;;3.60;0.95;;;;;;;22.69;52.47;96884.72;4953281;28;20168;-77
2022/09/09 09:40:16;;;;;;;4.30;0.90;;;;;;;22.40;52.54;96881.91;4969520;28;20195;-78
2022/09/09 09:43:00;;;;;;;6.72;1.30;;;;;;;21.93;53.18;96876.09;4953655;28;20213;-77
2022/09/09 09:45:41;;;;;;;5.25;1.10;;;;;;;22.00;53.34;96876.34;4950461;28;20204;-77
2022/09/09 09:48:12;;;;;;;4.82;1.35;;;;;;;21.94;53.49;96882.97;4933826;28;20274;-77
2022/09/09 09:50:48;;;;;;;3.53;1.13;;;;;;;21.94;53.82;96880.31;4949397;28;20223;-76
2022/09/09 09:53:21;;;;;;;1.65;0.50;;;;;;;21.87;53.52;96875.53;4968001;28;20315;-77
2022/09/09 09:55:53;;;;;;;4.03;1.00;;;;;;;22.03;53.42;96875.69;4950008;28;20287;-78
2022/09/09 09:58:18;;;;;;;3.72;1.83;;;;;;;22.05;53.35;96873.50;4949746;28;20200;-78
2022/09/09 10:00:49;;;;;;;4.15;0.75;;;;;;;22.38;51.96;96876.16;4968402;28;20200;-77
2022/09/09 10:03:22;;;;;;;2.38;0.80;;;;;;;22.52;51.65;96870.56;4917823;28;20273;-77
2022/09/09 10:05:48;;;;;;;4.68;1.25;;;;;;;22.20;52.65;96864.91;4949511;28;20185;-78
2022/09/09 10:08:16;;;;;;;7.57;1.55;;;;;;;22.28;51.64;96865.97;4933832;28;20247;-77
2022/09/09 10:11:14;;;;;;;4.05;1.17;;;;;;;22.26;52.25;96866.28;4949303;28;20691;-77
2022/09/09 10:13:45;;;;;;;3.00;1.10;;;;;;;22.69;51.26;96863.47;4967907;28;20598;-77
2022/09/09 10:16:23;;;;;;;2.47;0.80;;;;;;;22.86;52.16;96863.28;4949759;28;20678;-77
2022/09/09 10:19:03;;;;;;;3.67;0.90;;;;;;;23.09;50.18;96866.28;4966914;28;20202;-77
2022/09/09 10:21:57;;;;;;;2.78;0.60;;;;;;;23.00;49.88;96860.28;4932944;28;20242;-78
2022/09/09 10:24:29;;;;;;;3.60;1.00;;;;;;;22.94;50.26;96873.00;4949284;28;20169;-77
2022/09/09 10:27:09;;;;;;;5.35;1.27;;;;;;;23.03;50.18;96870.25;4949402;28;20158;-76
2022/09/09 10:30:14;;;;;;;3.50;0.88;;;;;;;22.91;50.72;96860.41;4949605;28;20268;-77
2022/09/09 10:32:41;;;;;;;5.05;0.68;;;;;;;23.19;50.91;96873.03;4933502;28;20240;-77
2022/09/09 10:35:12;;;;;;;2.65;0.90;;;;;;;23.15;51.43;96875.56;4967153;28;20165;-77
2022/09/09 10:38:11;;;;;;;4.32;0.70;;;;;;;22.86;52.83;96878.41;4933329;28;20181;-77
2022/09/09 10:40:58;;;;;;;6.25;1.20;;;;;;;22.63;52.70;96878.84;4966522;28;20712;-77
2022/09/09 10:43:32;;;;;;;4.07;1.08;;;;;;;22.15;53.97;96875.72;4966892;28;20181;-77
2022/09/09 10:46:13;;;;;;;4.07;1.33;;;;;;;21.88;55.76;96877.88;4965154;28;20641;-77
2022/09/09 10:48:57;;;;;;;5.70;1.30;;;;;;;21.89;56.31;96886.59;4968605;28;20218;-77
2022/09/09 10:52:14;;;;;;;4.18;1.40;;;;;;;21.38;57.65;96873.38;4985244;28;20641;-77
2022/09/09 10:54:45;;;;;;;3.30;1.10;;;;;;;21.59;56.82;96884.03;4919906;28;20390;-77
2022/09/09 10:57:25;;;;;;;3.90;0.85;;;;;;;21.46;56.79;96885.00;4968854;28;20270;-76
2022/09/09 10:59:53;;;;;;;3.03;0.75;;;;;;;21.35;57.21;96889.88;4968766;28;20649;-77
2022/09/09 11:02:37;;;;;;;4.93;1.73;;;;;;;21.11;57.50;96880.69;4968157;28;20288;-77
2022/09/09 11:05:28;;;;;;;2.40;0.90;;;;;;;21.14;57.89;96885.34;4986112;28;20206;-76
2022/09/09 11:08:04;;;;;;;4.55;0.88;;;;;;;21.15;57.87;96880.84;4952250;28;20656;-77
2022/09/09 11:10:41;;;;;;;4.90;1.40;;;;;;;21.25;58.86;96879.66;4968346;28;20211;-77
2022/09/09 11:13:43;;;;;;;1.98;0.70;;;;;;;22.06;56.15;96867.88;4984629;28;20311;-77
2022/09/09 11:16:27;;;;;;;1.70;0.60;;;;;;;23.07;54.12;96871.16;4954553;28;20641;-77
2022/09/09 11:18:58;;;;;;;2.72;1.30;;;;;;;23.95;50.60;96856.56;4968647;28;20324;-77
2022/09/09 11:21:31;;;;;;;2.55;0.80;;;;;;;24.71;49.70;96849.38;4968917;28;20147;-77
2022/09/09 11:24:09;;;;;;;2.63;0.82;;;;;;;25.00;47.93;96855.34;4968800;28;20168;-77
2022/09/09 11:26:46;;;;;;;2.40;0.80;;;;;;;25.04;45.70;96848.22;4968568;28;20732;-78
2022/09/09 11:29:41;;;;;;;2.40;0.60;;;;;;;24.79;46.33;96859.06;4967524;28;20601;-77
2022/09/09 11:32:37;;;;;;;1.25;0.60;;;;;;;25.09;45.92;96847.16;4967474;28;20716;-77
2022/09/09 11:35:21;;;;;;;1.38;0.52;;;;;;;25.23;44.30;96850.91;4986566;28;20207;-76
2022/09/09 11:38:05;;;;;;;0.98;0.70;;;;;;;25.04;45.52;96856.97;4967593;28;20251;-77
2022/09/09 11:40:31;;;;;;;2.75;0.70;;;;;;;24.96;45.47;96855.25;4985658;28;20272;-77
2022/09/09 11:43:25;;;;;;;3.00;0.63;;;;;;;24.78;46.65;96870.84;4951700;28;20199;-77
2022/09/09 11:45:57;;;;;;;1.95;0.88;;;;;;;25.12;45.53;96863.25;4967621;28;20299;-77
2022/09/09 11:48:34;;;;;;;2.40;0.70;;;;;;;25.17;46.03;96856.84;4967599;28;20191;-77
2022/09/09 11:51:05;;;;;;;2.28;0.90;;;;;;;25.15;46.14;96853.78;4967403;28;20078;-77
2022/09/09 11:53:31;;;;;;;2.38;0.63;;;;;;;24.84;44.15;96853.47;4968002;28;20282;-77
2022/09/09 11:56:04;;;;;;;2.25;1.40;;;;;;;24.40;47.20;96850.91;4935074;28;20203;-78
2022/09/09 11:58:36;;;;;;;3.33;0.70;;;;;;;24.70;45.50;96853.16;4967429;28;20241;-77
2022/09/09 12:01:13;;;;;;;2.70;0.90;;;;;;;24.58;45.78;96847.91;4967654;28;20214;-77
2022/09/09 12:03:43;;;;;;;4.00;1.20;;;;;;;24.65;46.29;96864.81;4951554;28;20203;-77
2022/09/09 12:06:15;;;;;;;2.95;0.93;;;;;;;24.23;45.98;96859.97;4967192;28;20161;-77
2022/09/09 12:08:45;;;;;;;3.60;0.93;;;;;;;23.80;48.72;96866.78;4985345;28;20207;-77